Time;durP1;ratioP1;P1;durP2;ratioP2;P2;SDS_P1;SDS_P2;PMS_P1;PMS_P2;Temp;Humidity;BMP_temperature;BMP_pressure;BME280_temperature;BME280_humidity;BME280_pressure;Samples;Min_cycle;Max_cycle;Signal;HPM_P1;HPM_P2
2021/06/18 00:02:15;;;;;;;8.60;7.80;;;23.70;1.00;;;;;;4982392;28;20572;-80
2021/06/18 00:04:42;;;;;;;9.87;8.17;;;23.80;1.00;;;;;;5018207;28;20316;-81
2021/06/18 00:07:09;;;;;;;10.73;9.17;;;23.60;1.00;;;;;;5027902;28;20258;-81
2021/06/18 00:09:36;;;;;;;11.30;9.17;;;23.50;1.00;;;;;;4998256;28;20278;-80
2021/06/18 00:12:05;;;;;;;9.90;8.90;;;23.50;1.00;;;;;;4997465;28;20647;-80
2021/06/18 00:14:32;;;;;;;10.13;8.93;;;23.60;1.00;;;;;;5015966;28;20197;-80
2021/06/18 00:16:59;;;;;;;12.97;10.00;;;23.70;1.00;;;;;;5018856;28;20201;-80
2021/06/18 00:19:26;;;;;;;13.47;10.43;;;23.50;1.00;;;;;;5031946;28;20232;-80
2021/06/18 00:21:53;;;;;;;11.80;9.60;;;23.30;1.00;;;;;;5002868;28;20609;-81
2021/06/18 00:24:20;;;;;;;13.50;10.17;;;23.50;1.00;;;;;;5005071;28;20200;-80
2021/06/18 00:26:47;;;;;;;11.27;10.07;;;23.50;1.00;;;;;;4995567;28;20280;-79
2021/06/18 00:29:14;;;;;;;11.13;9.93;;;23.50;1.00;;;;;;5015641;28;20256;-79
2021/06/18 00:31:41;;;;;;;11.00;9.80;;;23.60;1.00;;;;;;5011028;28;20231;-79
2021/06/18 00:34:08;;;;;;;12.57;10.87;;;23.60;1.00;;;;;;5017493;28;20532;-80
2021/06/18 00:36:35;;;;;;;13.50;10.57;;;23.40;1.00;;;;;;5002972;28;20276;-79
2021/06/18 00:39:02;;;;;;;13.00;10.57;;;23.40;1.00;;;;;;5017104;28;20225;-79
2021/06/18 00:41:31;;;;;;;12.17;10.87;;;23.50;1.00;;;;;;4992785;28;20256;-79
2021/06/18 00:43:57;;;;;;;12.20;11.00;;;23.40;1.00;;;;;;5016799;28;20655;-80
2021/06/18 00:46:24;;;;;;;15.23;11.43;;;23.50;1.00;;;;;;4997465;28;20277;-80
2021/06/18 00:48:52;;;;;;;13.10;11.47;;;23.40;1.00;;;;;;5002028;28;20320;-80
2021/06/18 00:51:19;;;;;;;13.40;11.20;;;23.40;1.00;;;;;;4999433;28;20218;-80
2021/06/18 00:53:47;;;;;;;15.43;11.60;;;23.40;1.00;;;;;;5022514;28;20218;-80
2021/06/18 00:56:14;;;;;;;12.63;10.87;;;23.50;1.00;;;;;;4998156;28;20603;-81
2021/06/18 00:58:41;;;;;;;15.00;11.13;;;23.40;1.00;;;;;;5002734;28;20200;-81
2021/06/18 01:01:08;;;;;;;12.40;11.17;;;23.40;1.00;;;;;;5010981;28;20199;-80
2021/06/18 01:03:34;;;;;;;14.00;12.50;;;23.20;1.00;;;;;;5029455;28;20200;-80
2021/06/18 01:06:01;;;;;;;12.70;11.50;;;23.10;1.00;;;;;;5030836;28;20297;-80
2021/06/18 01:08:39;;;;;;;13.63;11.13;;;23.00;1.00;;;;;;5015688;28;20601;-79
2021/06/18 01:11:18;;;;;;;12.50;11.30;;;23.00;1.00;;;;;;5013727;28;20637;-80
2021/06/18 01:14:02;;;;;;;15.43;12.50;;;22.90;1.00;;;;;;5019185;28;20673;-79
2021/06/18 01:16:45;;;;;;;13.60;11.73;;;23.00;1.00;;;;;;5015459;28;20207;-80
2021/06/18 01:19:41;;;;;;;13.70;12.30;;;22.90;1.00;;;;;;5017991;28;20209;-80
2021/06/18 01:22:13;;;;;;;14.23;12.73;;;22.90;1.00;;;;;;5018109;28;20237;-80
2021/06/18 01:25:12;;;;;;;15.30;13.20;;;23.00;1.00;;;;;;5014126;28;20407;-80
2021/06/18 01:28:11;;;;;;;13.93;12.47;;;23.10;1.00;;;;;;5010951;28;20228;-79
2021/06/18 01:30:38;;;;;;;16.13;14.37;;;23.10;1.00;;;;;;5018280;28;20292;-79
2021/06/18 01:33:12;;;;;;;16.10;14.40;;;23.10;1.00;;;;;;5012374;28;20295;-80
2021/06/18 01:35:44;;;;;;;14.83;13.23;;;23.00;1.00;;;;;;5035487;28;20555;-79
2021/06/18 01:38:12;;;;;;;15.17;13.57;;;23.10;1.00;;;;;;5020087;28;20307;-80
2021/06/18 01:40:41;;;;;;;16.27;13.00;;;23.10;1.00;;;;;;5003356;28;20212;-79
2021/06/18 01:43:10;;;;;;;16.43;14.00;;;23.10;1.00;;;;;;4996966;28;20270;-80
2021/06/18 01:45:40;;;;;;;17.50;13.20;;;22.90;1.00;;;;;;5012534;28;20232;-80
2021/06/18 01:48:07;;;;;;;13.13;11.57;;;23.00;1.00;;;;;;5007862;28;20198;-81
2021/06/18 01:50:36;;;;;;;18.03;13.23;;;23.20;1.00;;;;;;4983596;28;20232;-80
2021/06/18 01:53:09;;;;;;;14.47;12.97;;;23.10;1.00;;;;;;5015165;28;20194;-79
2021/06/18 01:55:38;;;;;;;15.10;13.27;;;23.00;1.00;;;;;;5011136;28;20227;-79
2021/06/18 01:58:06;;;;;;;17.83;13.70;;;22.90;1.00;;;;;;5014929;28;20226;-80
2021/06/18 02:00:39;;;;;;;14.87;13.23;;;23.00;1.00;;;;;;4997441;28;20270;-78
2021/06/18 02:03:13;;;;;;;14.90;13.10;;;22.90;1.00;;;;;;5011396;28;20208;-80
2021/06/18 02:05:42;;;;;;;15.57;13.53;;;22.80;1.00;;;;;;5010032;28;20580;-80
2021/06/18 02:08:11;;;;;;;16.47;12.63;;;22.80;1.00;;;;;;5010697;28;20215;-80
2021/06/18 02:10:41;;;;;;;15.53;13.93;;;22.90;1.00;;;;;;5030920;28;20254;-79
2021/06/18 02:13:10;;;;;;;17.40;13.63;;;22.70;1.00;;;;;;5030365;28;20267;-79
2021/06/18 02:15:39;;;;;;;14.20;12.90;;;22.70;30.20;;;;;;5027106;28;20279;-80
2021/06/18 02:18:14;;;;;;;14.97;13.37;;;22.70;28.60;;;;;;5012571;28;20676;-80
2021/06/18 02:20:44;;;;;;;14.67;12.87;;;22.70;4.50;;;;;;5019439;28;20579;-80
2021/06/18 02:23:12;;;;;;;15.13;13.00;;;22.80;3.10;;;;;;5010863;28;20673;-80
2021/06/18 02:25:40;;;;;;;15.00;13.40;;;22.90;1.00;;;;;;4995027;28;20325;-79
2021/06/18 02:28:08;;;;;;;14.33;12.90;;;23.00;1.00;;;;;;4978257;28;20226;-80
2021/06/18 02:30:35;;;;;;;15.23;13.73;;;23.10;1.00;;;;;;5018362;28;20232;-80
2021/06/18 02:33:10;;;;;;;15.60;14.00;;;23.00;1.00;;;;;;5030735;28;20305;-79
2021/06/18 02:35:39;;;;;;;14.93;13.27;;;22.80;4.80;;;;;;5009478;28;20747;-80
2021/06/18 02:38:07;;;;;;;16.27;13.27;;;22.90;2.60;;;;;;5004961;28;20206;-81
2021/06/18 02:40:35;;;;;;;16.10;14.50;;;22.60;99.90;;;;;;5027602;28;20211;-80
2021/06/18 02:43:03;;;;;;;16.77;13.90;;;22.20;99.90;;;;;;4982969;28;20210;-79
2021/06/18 02:45:31;;;;;;;15.50;13.10;;;22.20;99.90;;;;;;4998448;28;20228;-81
2021/06/18 02:48:10;;;;;;;18.73;14.60;;;22.40;99.90;;;;;;5011286;28;20233;-78
2021/06/18 02:50:53;;;;;;;18.87;14.80;;;22.40;99.90;;;;;;5014854;28;20238;-77
2021/06/18 02:53:34;;;;;;;21.47;16.63;;;22.00;99.90;;;;;;5020355;28;20270;-80
2021/06/18 02:56:12;;;;;;;21.47;16.70;;;21.60;99.90;;;;;;5015496;28;20202;-78
2021/06/18 02:58:52;;;;;;;24.83;17.83;;;21.70;99.90;;;;;;5028357;28;20274;-79
2021/06/18 03:01:25;;;;;;;22.80;18.40;;;21.80;99.90;;;;;;5015069;28;20207;-79
2021/06/18 03:03:55;;;;;;;20.93;18.57;;;22.00;99.90;;;;;;5030129;28;20644;-79
2021/06/18 03:06:23;;;;;;;20.57;17.70;;;22.00;99.90;;;;;;5011274;28;20624;-79
2021/06/18 03:08:57;;;;;;;25.33;18.53;;;22.00;99.90;;;;;;5010991;28;20231;-79
2021/06/18 03:11:39;;;;;;;27.43;17.70;;;22.00;99.90;;;;;;5012735;28;20236;-79
2021/06/18 03:14:12;;;;;;;26.97;17.67;;;21.80;99.90;;;;;;5014908;28;20268;-79
2021/06/18 03:16:41;;;;;;;25.17;18.93;;;21.60;99.90;;;;;;5002587;28;20195;-80
2021/06/18 03:19:12;;;;;;;23.30;18.13;;;21.70;99.90;;;;;;5017590;28;20678;-80
2021/06/18 03:21:40;;;;;;;23.77;19.57;;;21.70;99.90;;;;;;5012255;28;20573;-80
2021/06/18 03:24:09;;;;;;;25.43;21.53;;;21.60;99.90;;;;;;5002337;28;20200;-79
2021/06/18 03:26:37;;;;;;;32.10;22.77;;;21.40;99.90;;;;;;5032496;28;20212;-79
2021/06/18 03:29:07;;;;;;;36.53;25.90;;;21.10;99.90;;;;;;5013166;28;20201;-79
2021/06/18 03:31:36;;;;;;;28.60;22.30;;;20.80;99.90;;;;;;5012193;28;20229;-79
2021/06/18 03:34:04;;;;;;;11.57;7.17;;;20.60;99.90;;;;;;5012616;28;20242;-78
2021/06/18 03:36:31;;;;;;;9.83;7.53;;;20.40;99.90;;;;;;5001283;28;20222;-78
2021/06/18 03:38:58;;;;;;;14.20;7.97;;;20.60;99.90;;;;;;5016357;28;20240;-78
2021/06/18 03:41:26;;;;;;;8.70;5.80;;;20.70;99.90;;;;;;4993332;28;20205;-79
2021/06/18 03:43:53;;;;;;;12.23;6.90;;;20.80;99.90;;;;;;4990429;28;20219;-79
2021/06/18 03:46:21;;;;;;;8.60;6.47;;;21.00;99.90;;;;;;5013250;28;20575;-79
2021/06/18 03:48:48;;;;;;;10.67;6.13;;;21.20;99.90;;;;;;5001290;28;20210;-79
2021/06/18 03:51:16;;;;;;;9.07;6.67;;;21.00;99.90;;;;;;5011026;28;20247;-80
2021/06/18 03:53:43;;;;;;;11.33;8.27;;;21.10;99.90;;;;;;4993930;28;20202;-80
2021/06/18 03:56:11;;;;;;;11.63;7.73;;;21.10;99.90;;;;;;5007190;28;20241;-80
2021/06/18 03:58:40;;;;;;;11.70;7.73;;;21.30;99.90;;;;;;5005137;28;20218;-80
2021/06/18 04:01:10;;;;;;;7.70;6.00;;;21.40;99.90;;;;;;5011290;28;20244;-78
2021/06/18 04:03:41;;;;;;;9.57;7.10;;;21.20;99.90;;;;;;5006518;28;20283;-78
2021/06/18 04:06:11;;;;;;;9.87;6.53;;;21.30;99.90;;;;;;5001105;28;20221;-78
2021/06/18 04:08:38;;;;;;;9.07;6.97;;;21.20;99.90;;;;;;5008507;28;20674;-79
2021/06/18 04:11:08;;;;;;;11.80;8.13;;;20.90;99.90;;;;;;4990894;28;20205;-78
2021/06/18 04:13:38;;;;;;;12.87;8.80;;;20.90;99.90;;;;;;5010550;28;20217;-78
2021/06/18 04:16:09;;;;;;;14.77;8.70;;;21.00;99.90;;;;;;5003746;28;20206;-79
2021/06/18 04:18:42;;;;;;;10.30;7.80;;;21.00;99.90;;;;;;4993732;28;20255;-79
2021/06/18 04:21:13;;;;;;;12.90;7.67;;;20.90;99.90;;;;;;5008336;28;20280;-78
2021/06/18 04:23:40;;;;;;;13.67;8.33;;;20.90;99.90;;;;;;5004617;28;20214;-78
2021/06/18 04:26:07;;;;;;;11.40;7.70;;;20.80;99.90;;;;;;5007340;28;20289;-79
2021/06/18 04:28:36;;;;;;;13.40;9.40;;;21.10;99.90;;;;;;4992594;28;20837;-79
2021/06/18 04:31:05;;;;;;;12.50;9.73;;;21.20;99.90;;;;;;4992250;28;20279;-79
2021/06/18 04:33:33;;;;;;;13.43;10.80;;;21.10;99.90;;;;;;5003759;28;20235;-79
2021/06/18 04:36:00;;;;;;;14.00;12.13;;;21.00;99.90;;;;;;5011995;28;20236;-78
2021/06/18 04:38:27;;;;;;;13.97;12.43;;;20.90;99.90;;;;;;5011102;28;20815;-79
2021/06/18 04:40:54;;;;;;;19.77;14.07;;;21.00;99.90;;;;;;5011905;28;20193;-78
2021/06/18 04:43:21;;;;;;;18.63;15.70;;;21.20;99.90;;;;;;5030138;28;20630;-79
2021/06/18 04:45:48;;;;;;;26.00;19.63;;;21.20;99.90;;;;;;4994969;28;20311;-79
2021/06/18 04:48:16;;;;;;;28.03;19.87;;;21.10;99.90;;;;;;4986186;28;20552;-80
2021/06/18 04:50:43;;;;;;;33.43;26.50;;;21.30;99.90;;;;;;4997097;28;20211;-79
2021/06/18 04:53:10;;;;;;;33.20;26.73;;;21.20;99.90;;;;;;4994548;28;20292;-80
2021/06/18 04:55:41;;;;;;;32.80;27.10;;;21.30;99.90;;;;;;4982137;28;20203;-80
2021/06/18 04:58:11;;;;;;;34.77;28.40;;;21.00;99.90;;;;;;4997178;28;20278;-80
2021/06/18 05:00:38;;;;;;;35.43;28.27;;;21.10;99.90;;;;;;5011675;28;20351;-80
2021/06/18 05:03:05;;;;;;;35.73;28.83;;;21.00;99.90;;;;;;5002435;28;20203;-80
2021/06/18 05:05:32;;;;;;;35.80;28.20;;;20.80;99.90;;;;;;5019290;28;20197;-80
2021/06/18 05:07:59;;;;;;;37.03;27.43;;;21.10;99.90;;;;;;5004620;28;20209;-80
2021/06/18 05:10:27;;;;;;;35.03;28.07;;;21.00;99.90;;;;;;4996753;28;20654;-80
2021/06/18 05:12:54;;;;;;;34.57;27.87;;;20.80;99.90;;;;;;5000308;28;20228;-79
2021/06/18 05:15:21;;;;;;;32.97;26.87;;;20.70;99.90;;;;;;5011838;28;20251;-79
2021/06/18 05:17:48;;;;;;;33.20;27.03;;;20.60;99.90;;;;;;4999001;28;20255;-79
2021/06/18 05:20:16;;;;;;;32.73;25.67;;;20.60;99.90;;;;;;4998672;28;20232;-80
2021/06/18 05:22:44;;;;;;;36.73;27.07;;;20.50;99.90;;;;;;5013670;28;20206;-79
2021/06/18 05:25:11;;;;;;;37.13;28.07;;;20.50;99.90;;;;;;5009149;28;20237;-79
2021/06/18 05:27:38;;;;;;;36.20;27.77;;;20.50;99.90;;;;;;5017769;28;20235;-79
2021/06/18 05:30:07;;;;;;;33.70;27.67;;;20.60;99.90;;;;;;4994170;28;20319;-78
2021/06/18 05:32:50;;;;;;;34.20;27.07;;;20.40;99.90;;;;;;5015658;28;20224;-77
2021/06/18 05:35:17;;;;;;;34.00;28.17;;;20.50;99.90;;;;;;5017772;28;20230;-79
2021/06/18 05:37:44;;;;;;;34.73;25.93;;;20.60;99.90;;;;;;4987180;28;20273;-77
2021/06/18 05:40:11;;;;;;;33.73;26.57;;;20.50;99.90;;;;;;4991728;28;20326;-77
2021/06/18 05:42:40;;;;;;;35.30;25.20;;;20.50;99.90;;;;;;4999792;28;20577;-78
2021/06/18 05:45:07;;;;;;;33.47;27.20;;;20.40;99.90;;;;;;4995845;28;20212;-77
2021/06/18 05:47:36;;;;;;;34.43;25.70;;;20.40;99.90;;;;;;5010584;28;20345;-78
2021/06/18 05:50:07;;;;;;;26.93;21.60;;;20.70;99.90;;;;;;5008717;28;21231;-81
2021/06/18 05:52:34;;;;;;;30.20;21.30;;;20.60;99.90;;;;;;5008303;28;20209;-80
2021/06/18 05:55:01;;;;;;;24.27;20.57;;;20.90;99.90;;;;;;5016632;28;20190;-80
2021/06/18 05:57:28;;;;;;;29.13;22.03;;;21.10;99.90;;;;;;5003850;28;20275;-81
2021/06/18 05:59:55;;;;;;;25.40;20.03;;;21.20;99.90;;;;;;4995139;28;20521;-80
2021/06/18 06:02:23;;;;;;;28.20;23.67;;;21.40;99.90;;;;;;4999712;28;20198;-80
2021/06/18 06:04:51;;;;;;;25.23;21.20;;;21.40;99.90;;;;;;5002448;28;20337;-80
2021/06/18 06:07:18;;;;;;;31.40;23.87;;;21.30;99.90;;;;;;5004127;28;20202;-80
2021/06/18 06:09:45;;;;;;;24.73;22.10;;;21.40;99.90;;;;;;5013549;28;20205;-79
2021/06/18 06:12:12;;;;;;;20.80;17.47;;;21.40;99.90;;;;;;5012370;28;20315;-79
2021/06/18 06:14:39;;;;;;;23.83;19.23;;;21.60;99.90;;;;;;5006575;28;20674;-80
2021/06/18 06:17:06;;;;;;;19.47;17.43;;;21.80;99.90;;;;;;5010421;28;20664;-80
2021/06/18 06:19:33;;;;;;;20.07;16.77;;;21.90;99.90;;;;;;5018622;28;20204;-80
2021/06/18 06:22:00;;;;;;;25.53;20.47;;;22.00;99.90;;;;;;5015329;28;20209;-80
2021/06/18 06:24:26;;;;;;;25.50;20.03;;;22.10;99.90;;;;;;5010871;28;20205;-80
2021/06/18 06:26:53;;;;;;;24.13;20.87;;;22.00;99.90;;;;;;5010924;28;20328;-79
2021/06/18 06:29:20;;;;;;;21.77;19.47;;;22.00;99.90;;;;;;5017434;28;20205;-81
2021/06/18 06:31:47;;;;;;;27.50;21.97;;;21.90;99.90;;;;;;5018408;28;20229;-81
2021/06/18 06:34:14;;;;;;;24.37;21.73;;;22.00;99.90;;;;;;5002416;28;20213;-80
2021/06/18 06:36:41;;;;;;;21.70;18.87;;;22.00;99.90;;;;;;5006910;28;20200;-80
2021/06/18 06:39:08;;;;;;;25.03;19.27;;;21.90;99.90;;;;;;5003836;28;20201;-80
2021/06/18 06:41:35;;;;;;;25.13;19.77;;;22.10;99.90;;;;;;5019024;28;20269;-80
2021/06/18 06:44:03;;;;;;;21.30;19.00;;;22.10;99.90;;;;;;5004775;28;20209;-80
2021/06/18 06:46:30;;;;;;;24.33;20.33;;;22.30;99.90;;;;;;5040396;28;20209;-79
2021/06/18 06:48:57;;;;;;;22.47;18.90;;;22.10;99.90;;;;;;5003731;28;20204;-79
2021/06/18 06:51:26;;;;;;;26.50;20.10;;;22.20;99.90;;;;;;5016243;28;20205;-81
2021/06/18 06:53:52;;;;;;;25.47;20.97;;;22.30;99.90;;;;;;5022967;28;20244;-80
2021/06/18 06:56:19;;;;;;;22.23;19.33;;;22.30;99.90;;;;;;5018857;28;20197;-80
2021/06/18 06:58:47;;;;;;;21.80;19.50;;;22.20;99.90;;;;;;5020001;28;20216;-81
2021/06/18 07:01:14;;;;;;;17.67;15.73;;;22.30;99.90;;;;;;5017991;28;20454;-79
2021/06/18 07:03:41;;;;;;;19.43;17.13;;;22.50;99.90;;;;;;5021399;28;20250;-80
2021/06/18 07:06:08;;;;;;;19.50;17.50;;;22.50;99.90;;;;;;5020485;28;20196;-80
2021/06/18 07:08:36;;;;;;;18.63;15.83;;;22.50;99.90;;;;;;5031964;28;20209;-80
2021/06/18 07:11:03;;;;;;;20.23;17.63;;;22.60;99.90;;;;;;5018067;28;20216;-78
2021/06/18 07:13:31;;;;;;;16.60;14.77;;;22.60;99.90;;;;;;5012488;28;20254;-80
2021/06/18 07:15:59;;;;;;;18.53;16.57;;;22.60;99.90;;;;;;5026326;28;20312;-80
2021/06/18 07:18:26;;;;;;;18.47;16.13;;;22.60;99.90;;;;;;5032759;28;20205;-80
2021/06/18 07:20:53;;;;;;;16.33;14.63;;;22.50;99.90;;;;;;5036373;28;20271;-80
2021/06/18 07:23:20;;;;;;;17.97;15.07;;;22.60;99.90;;;;;;5010176;28;20216;-80
2021/06/18 07:25:47;;;;;;;19.47;16.00;;;22.70;99.90;;;;;;5005570;28;20573;-80
2021/06/18 07:28:14;;;;;;;18.20;16.27;;;22.60;99.90;;;;;;5003193;28;20213;-80
2021/06/18 07:30:41;;;;;;;18.25;16.08;;;22.60;99.90;;;;;;4983562;28;20483;-77
2021/06/18 07:33:09;;;;;;;19.63;17.52;;;22.50;99.90;;;;;;5016315;28;20464;-79
2021/06/18 07:35:36;;;;;;;18.57;16.70;;;22.90;99.90;;;;;;5020741;28;20217;-79
2021/06/18 07:38:04;;;;;;;16.30;14.43;;;23.00;99.90;;;;;;5016840;28;20208;-80
2021/06/18 07:40:32;;;;;;;17.40;15.67;;;22.90;99.90;;;;;;5012319;28;20267;-79
2021/06/18 07:42:59;;;;;;;17.90;16.03;;;23.00;99.90;;;;;;5014565;28;20207;-79
2021/06/18 07:45:26;;;;;;;17.90;16.07;;;22.90;99.90;;;;;;4997827;28;20204;-80
2021/06/18 07:47:53;;;;;;;17.83;15.53;;;22.80;99.90;;;;;;5017878;28;20252;-80
2021/06/18 07:50:21;;;;;;;17.50;15.77;;;22.80;99.90;;;;;;4996328;28;20683;-80
2021/06/18 07:52:48;;;;;;;19.57;17.17;;;22.70;99.90;;;;;;5015785;28;20280;-81
2021/06/18 07:55:22;;;;;;;18.17;16.13;;;22.70;99.90;;;;;;5008479;28;20203;-81
2021/06/18 07:57:51;;;;;;;20.70;16.07;;;22.70;99.90;;;;;;5001366;28;20261;-81
2021/06/18 08:00:19;;;;;;;20.50;16.33;;;22.60;99.90;;;;;;5000175;28;20677;-81
2021/06/18 08:02:46;;;;;;;18.80;15.60;;;22.60;99.90;;;;;;4997362;28;20216;-80
2021/06/18 08:05:15;;;;;;;16.80;15.20;;;22.60;99.90;;;;;;4998008;28;20637;-80
2021/06/18 08:07:44;;;;;;;16.97;15.17;;;22.60;99.90;;;;;;5015660;28;20201;-80
2021/06/18 08:10:13;;;;;;;19.07;16.07;;;22.60;99.90;;;;;;5008007;28;20201;-80
2021/06/18 08:12:45;;;;;;;16.73;15.03;;;22.90;99.90;;;;;;5008826;28;20235;-80
2021/06/18 08:15:13;;;;;;;16.20;14.37;;;23.10;99.90;;;;;;4995498;28;20241;-80
2021/06/18 08:17:40;;;;;;;16.20;14.60;;;23.40;99.90;;;;;;4994770;28;20612;-79
2021/06/18 08:20:10;;;;;;;18.02;16.23;;;23.90;99.90;;;;;;5002064;28;20916;-77
2021/06/18 08:22:38;;;;;;;15.33;12.73;;;24.10;99.90;;;;;;5001546;28;20204;-77
2021/06/18 08:25:06;;;;;;;14.90;13.37;;;24.90;99.90;;;;;;5003466;28;20239;-76
2021/06/18 08:27:33;;;;;;;19.30;15.37;;;25.30;99.90;;;;;;5021207;28;20201;-76
2021/06/18 08:30:00;;;;;;;13.67;12.37;;;26.00;99.90;;;;;;5007013;28;20687;-76
2021/06/18 08:32:47;;;;;;;15.03;12.20;;;26.10;99.90;;;;;;4993196;28;20246;-76
2021/06/18 08:35:14;;;;;;;13.27;11.87;;;26.30;99.90;;;;;;5015561;28;20620;-76
2021/06/18 08:37:41;;;;;;;14.13;10.87;;;26.70;99.90;;;;;;5016143;28;20660;-76
2021/06/18 08:40:09;;;;;;;13.73;12.13;;;26.90;99.90;;;;;;4983350;28;20271;-76
2021/06/18 08:42:37;;;;;;;13.83;12.53;;;26.60;99.90;;;;;;5011309;28;20564;-77
2021/06/18 08:45:06;;;;;;;14.73;13.00;;;26.80;99.90;;;;;;4990698;28;20278;-76
2021/06/18 08:47:33;;;;;;;13.97;12.57;;;26.90;99.90;;;;;;4981102;28;20299;-78
2021/06/18 08:50:00;;;;;;;12.33;11.13;;;26.90;99.90;;;;;;5011618;28;20224;-76
2021/06/18 08:52:27;;;;;;;16.97;15.27;;;27.10;99.90;;;;;;5008361;28;20345;-77
2021/06/18 08:54:55;;;;;;;12.10;11.00;;;27.10;99.90;;;;;;4994158;28;20251;-76
2021/06/18 08:57:23;;;;;;;19.43;15.97;;;27.50;99.90;;;;;;5005111;28;20189;-76
2021/06/18 08:59:51;;;;;;;16.13;14.13;;;27.10;99.90;;;;;;5000916;28;20201;-76
2021/06/18 09:02:18;;;;;;;15.80;14.07;;;26.90;99.90;;;;;;5010070;28;20193;-76
2021/06/18 09:05:09;;;;;;;14.93;13.53;;;27.50;99.90;;;;;;4993184;28;20202;-77
2021/06/18 09:07:54;;;;;;;14.93;13.33;;;27.40;99.90;;;;;;5002695;28;20265;-77
2021/06/18 09:10:40;;;;;;;14.13;12.63;;;27.10;99.90;;;;;;4993519;28;20277;-76
2021/06/18 09:13:11;;;;;;;14.60;13.10;;;27.50;99.90;;;;;;4990494;28;20237;-76
2021/06/18 09:15:42;;;;;;;15.37;13.73;;;27.90;99.90;;;;;;5004357;28;20688;-78
2021/06/18 09:18:30;;;;;;;15.80;14.20;;;28.10;99.90;;;;;;5009498;28;20205;-77
2021/06/18 09:21:03;;;;;;;14.13;12.73;;;28.00;99.90;;;;;;4995814;28;20215;-79
2021/06/18 09:23:33;;;;;;;13.53;12.13;;;27.80;99.90;;;;;;5013646;28;20200;-81
2021/06/18 09:26:22;;;;;;;16.63;13.53;;;28.20;99.90;;;;;;5011742;28;20220;-80
2021/06/18 09:29:15;;;;;;;16.63;14.57;;;27.80;99.90;;;;;;5012878;28;20212;-79
2021/06/18 09:31:52;;;;;;;14.10;12.70;;;27.40;99.90;;;;;;5000595;28;20317;-78
2021/06/18 09:35:00;;;;;;;14.27;12.90;;;27.60;99.90;;;;;;4985903;28;20293;-78
2021/06/18 09:37:39;;;;;;;14.90;13.37;;;27.70;99.90;;;;;;4995176;28;20199;-79
2021/06/18 09:40:14;;;;;;;13.47;12.17;;;28.10;99.90;;;;;;5012939;28;20546;-79
2021/06/18 09:43:04;;;;;;;15.37;12.87;;;28.10;99.90;;;;;;5033022;28;20233;-81
2021/06/18 09:45:32;;;;;;;14.07;11.67;;;28.40;99.90;;;;;;5014883;28;20239;-79
2021/06/18 09:48:11;;;;;;;13.77;12.47;;;28.90;99.90;;;;;;5015025;28;20234;-79
2021/06/18 09:50:40;;;;;;;13.77;12.33;;;28.50;99.90;;;;;;5019831;28;20254;-79
2021/06/18 09:53:20;;;;;;;14.43;12.53;;;28.50;99.90;;;;;;5006392;28;20304;-78
2021/06/18 09:56:10;;;;;;;12.93;11.60;;;28.70;99.90;;;;;;5012480;28;20242;-79
2021/06/18 09:58:39;;;;;;;15.03;13.37;;;29.40;96.40;;;;;;5017905;28;20494;-79
2021/06/18 10:01:17;;;;;;;14.27;12.60;;;29.00;99.80;;;;;;5032260;28;20315;-79
2021/06/18 10:04:04;;;;;;;12.70;11.47;;;29.20;99.90;;;;;;5030343;28;20210;-79
2021/06/18 10:06:33;;;;;;;12.43;11.20;;;29.30;95.50;;;;;;5025791;28;20560;-79
2021/06/18 10:09:01;;;;;;;13.03;11.47;;;29.50;95.60;;;;;;5010540;28;20287;-79
2021/06/18 10:11:29;;;;;;;13.43;12.03;;;29.70;90.60;;;;;;5016452;28;20217;-78
2021/06/18 10:13:57;;;;;;;12.82;11.32;;;29.30;95.30;;;;;;5015788;28;20232;-79
2021/06/18 10:16:26;;;;;;;13.60;11.73;;;29.50;98.00;;;;;;5029828;28;20718;-78
2021/06/18 10:18:58;;;;;;;14.88;13.40;;;29.70;90.30;;;;;;5024537;28;20678;-79
2021/06/18 10:21:27;;;;;;;13.75;12.07;;;29.50;77.80;;;;;;5020481;28;20614;-79
2021/06/18 10:23:58;;;;;;;12.02;10.68;;;29.60;79.40;;;;;;5030453;28;20262;-79
2021/06/18 10:26:28;;;;;;;12.93;10.93;;;29.90;86.80;;;;;;5014870;28;20216;-79
2021/06/18 10:29:00;;;;;;;12.33;10.67;;;30.10;80.90;;;;;;5015366;28;20567;-78
2021/06/18 10:31:30;;;;;;;13.47;11.73;;;30.50;52.40;;;;;;5019061;28;20231;-79
2021/06/18 10:34:15;;;;;;;12.13;11.10;;;30.30;59.00;;;;;;5033533;28;20732;-78
2021/06/18 10:36:43;;;;;;;11.37;9.33;;;29.60;69.30;;;;;;5014778;28;20197;-79
2021/06/18 10:39:17;;;;;;;11.50;10.30;;;29.90;69.70;;;;;;4981734;28;20201;-79
2021/06/18 10:41:53;;;;;;;12.17;10.03;;;29.70;84.40;;;;;;5013080;28;20504;-79
2021/06/18 10:44:39;;;;;;;10.70;7.17;;;29.90;61.90;;;;;;4977164;28;20676;-79
2021/06/18 10:47:31;;;;;;;9.90;7.97;;;30.30;66.50;;;;;;5018917;28;20242;-79
2021/06/18 10:49:59;;;;;;;8.67;7.87;;;30.20;59.10;;;;;;5013958;28;20216;-79
2021/06/18 10:52:40;;;;;;;9.57;7.30;;;30.30;56.70;;;;;;5014930;28;20216;-79
2021/06/18 10:55:08;;;;;;;9.53;8.60;;;30.50;62.90;;;;;;5030580;28;20846;-79
2021/06/18 10:57:49;;;;;;;11.23;9.83;;;30.70;47.00;;;;;;4996853;28;20280;-79
2021/06/18 11:00:27;;;;;;;11.20;9.57;;;30.20;44.70;;;;;;5013972;28;20583;-79
2021/06/18 11:02:54;;;;;;;7.23;6.47;;;30.10;57.00;;;;;;5014231;28;20228;-79
2021/06/18 11:05:24;;;;;;;8.43;6.63;;;30.90;50.00;;;;;;5013495;28;20226;-79
2021/06/18 11:08:18;;;;;;;12.70;9.23;;;30.90;46.40;;;;;;5013563;28;20232;-79
2021/06/18 11:11:00;;;;;;;9.32;7.45;;;30.80;43.20;;;;;;5014168;28;20213;-79
2021/06/18 11:13:28;;;;;;;8.90;7.22;;;31.90;28.80;;;;;;5003450;28;20258;-79
2021/06/18 11:15:55;;;;;;;8.60;7.72;;;31.20;33.00;;;;;;4994369;28;20254;-78
2021/06/18 11:18:32;;;;;;;14.75;6.78;;;31.60;24.10;;;;;;5009303;28;20189;-79
2021/06/18 11:21:01;;;;;;;7.82;6.85;;;32.50;17.60;;;;;;5015420;28;20300;-79
2021/06/18 11:23:32;;;;;;;8.65;7.32;;;32.40;20.00;;;;;;5010478;28;20270;-79
2021/06/18 11:25:59;;;;;;;8.80;5.82;;;31.80;20.00;;;;;;5024979;28;20702;-79
2021/06/18 11:28:26;;;;;;;9.02;7.00;;;32.40;13.70;;;;;;5028174;28;20225;-79
2021/06/18 11:31:21;;;;;;;10.00;6.47;;;32.50;18.90;;;;;;5033061;28;20319;-79
2021/06/18 11:33:54;;;;;;;11.95;8.50;;;32.80;15.90;;;;;;5037381;28;20316;-78
2021/06/18 11:36:21;;;;;;;8.77;7.88;;;32.60;18.70;;;;;;5002220;28;20209;-77
2021/06/18 11:38:52;;;;;;;8.95;6.63;;;32.80;15.00;;;;;;5028093;28;20627;-78
2021/06/18 11:41:22;;;;;;;7.80;6.10;;;33.10;14.00;;;;;;5022075;28;20307;-77
2021/06/18 11:43:51;;;;;;;11.18;7.43;;;33.70;9.70;;;;;;5009915;28;20556;-77
2021/06/18 11:46:19;;;;;;;9.23;6.97;;;32.80;15.20;;;;;;5036343;28;20204;-78
2021/06/18 11:48:47;;;;;;;11.60;6.38;;;32.60;15.80;;;;;;5009538;28;20207;-77
2021/06/18 11:51:25;;;;;;;8.68;5.75;;;32.80;16.80;;;;;;5023924;28;20232;-77
2021/06/18 11:53:52;;;;;;;7.95;7.00;;;33.00;13.90;;;;;;5003040;28;20267;-77
2021/06/18 11:56:19;;;;;;;10.07;7.10;;;32.30;11.40;;;;;;5004798;28;20227;-76
2021/06/18 11:58:47;;;;;;;11.20;7.70;;;33.40;10.50;;;;;;4991808;28;20212;-79
2021/06/18 12:01:15;;;;;;;7.05;6.07;;;32.70;12.00;;;;;;5010602;28;20629;-76
2021/06/18 12:03:45;;;;;;;11.68;7.10;;;32.40;13.50;;;;;;5027589;28;20216;-78
2021/06/18 12:06:26;;;;;;;10.18;7.65;;;32.80;9.60;;;;;;5009370;28;20255;-77
2021/06/18 12:09:02;;;;;;;9.18;5.68;;;32.50;8.40;;;;;;5016944;28;20259;-78
2021/06/18 12:11:58;;;;;;;7.93;7.13;;;33.00;12.00;;;;;;5015477;28;20200;-76
2021/06/18 12:14:32;;;;;;;8.60;7.70;;;32.00;10.40;;;;;;5016561;28;20213;-77
2021/06/18 12:16:59;;;;;;;6.78;5.40;;;31.80;20.80;;;;;;5017400;28;20195;-77
2021/06/18 12:19:28;;;;;;;11.98;6.20;;;33.00;17.80;;;;;;5032250;28;20316;-77
2021/06/18 12:22:08;;;;;;;11.75;6.85;;;32.70;6.80;;;;;;4986662;28;20193;-78
2021/06/18 12:24:53;;;;;;;8.40;4.90;;;32.40;9.80;;;;;;5026466;28;20218;-77
2021/06/18 12:27:22;;;;;;;8.88;6.00;;;33.50;8.40;;;;;;5027251;28;20322;-77
2021/06/18 12:29:55;;;;;;;8.00;6.10;;;33.30;5.80;;;;;;5013392;28;20695;-77
2021/06/18 12:32:27;;;;;;;8.15;7.35;;;32.40;10.80;;;;;;5008203;28;20318;-78
2021/06/18 12:34:55;;;;;;;8.00;6.03;;;32.20;10.20;;;;;;5024523;28;20216;-77
2021/06/18 12:37:25;;;;;;;7.40;5.88;;;32.70;12.10;;;;;;5028258;28;20207;-77
2021/06/18 12:39:55;;;;;;;8.02;5.18;;;32.70;10.10;;;;;;5021966;28;20722;-77
2021/06/18 12:42:26;;;;;;;7.75;5.22;;;33.40;8.20;;;;;;5025817;28;20319;-78
2021/06/18 12:45:14;;;;;;;7.80;5.35;;;33.60;1.70;;;;;;5037595;28;21681;-78
2021/06/18 12:47:47;;;;;;;7.25;4.82;;;33.50;3.00;;;;;;5028456;28;20326;-76
2021/06/18 12:50:31;;;;;;;6.85;5.20;;;33.00;6.60;;;;;;5013844;28;20219;-77
2021/06/18 12:53:02;;;;;;;5.20;4.57;;;32.20;7.60;;;;;;5030377;28;20224;-77